TimeCDT,TemperatureF,Dew PointF,Humidity,Sea Level PressureIn,VisibilityMPH,Wind Direction,Wind SpeedMPH,Gust SpeedMPH,PrecipitationIn,Events,Conditions,WindDirDegrees,DateUTC
12:15 AM,35.6,26.6,70,30.12,10.0,South,8.1,-,N/A,,Clear,180,2012-10-11 05:15:00
12:35 AM,35.6,26.6,70,30.12,10.0,South,6.9,-,N/A,,Clear,190,2012-10-11 05:35:00
12:55 AM,35.6,26.6,70,30.12,10.0,South,8.1,-,N/A,,Clear,190,2012-10-11 05:55:00
1:15 AM,37.4,26.6,65,30.12,10.0,South,8.1,-,N/A,,Clear,190,2012-10-11 06:15:00
1:55 AM,37.4,28.4,70,30.11,10.0,SSW,8.1,-,N/A,,Clear,200,2012-10-11 06:55:00
2:15 AM,39.2,28.4,65,30.11,10.0,South,9.2,-,N/A,,Clear,190,2012-10-11 07:15:00
2:55 AM,39.2,28.4,65,30.11,10.0,SSW,10.4,-,N/A,,Clear,210,2012-10-11 07:55:00
3:15 AM,39.2,28.4,65,30.11,10.0,SSW,11.5,-,N/A,,Clear,210,2012-10-11 08:15:00
3:35 AM,39.2,28.4,65,30.11,10.0,SSW,10.4,-,N/A,,Clear,210,2012-10-11 08:35:00
3:55 AM,39.2,28.4,65,30.11,10.0,South,9.2,-,N/A,,Clear,190,2012-10-11 08:55:00
4:15 AM,39.2,28.4,65,30.10,10.0,South,10.4,-,N/A,,Clear,190,2012-10-11 09:15:00
4:35 AM,39.2,28.4,65,30.10,10.0,SSW,9.2,-,N/A,,Clear,200,2012-10-11 09:35:00
4:55 AM,39.2,28.4,65,30.10,10.0,SSW,9.2,-,N/A,,Clear,200,2012-10-11 09:55:00
5:15 AM,39.2,30.2,70,30.10,10.0,SSW,10.4,-,N/A,,Clear,200,2012-10-11 10:15:00
5:35 AM,39.2,30.2,70,30.10,10.0,SSW,9.2,-,N/A,,Clear,200,2012-10-11 10:35:00
5:55 AM,39.2,28.4,65,30.10,10.0,South,9.2,-,N/A,,Clear,190,2012-10-11 10:55:00
6:15 AM,39.2,28.4,65,30.10,10.0,South,9.2,-,N/A,,Clear,190,2012-10-11 11:15:00
6:35 AM,37.4,28.4,70,30.10,10.0,South,8.1,-,N/A,,Clear,190,2012-10-11 11:35:00
6:55 AM,37.4,28.4,70,30.10,10.0,South,9.2,-,N/A,,Clear,190,2012-10-11 11:55:00
7:15 AM,37.4,30.2,75,30.10,10.0,South,9.2,-,N/A,,Clear,190,2012-10-11 12:15:00
7:35 AM,39.2,30.2,70,30.10,10.0,South,10.4,-,N/A,,Clear,190,2012-10-11 12:35:00
7:55 AM,39.2,30.2,70,30.10,10.0,South,11.5,-,N/A,,Clear,190,2012-10-11 12:55:00
8:15 AM,42.8,30.2,61,30.10,10.0,SSW,12.7,-,N/A,,Clear,200,2012-10-11 13:15:00
8:35 AM,44.6,30.2,57,30.11,10.0,SSW,12.7,-,N/A,,Clear,210,2012-10-11 13:35:00
8:55 AM,46.4,30.2,53,30.12,10.0,SW,10.4,17.3,N/A,,Clear,220,2012-10-11 13:55:00
9:15 AM,48.2,32.0,54,30.12,10.0,SSW,13.8,-,N/A,,Clear,210,2012-10-11 14:15:00
9:35 AM,51.8,33.8,50,30.12,10.0,SW,16.1,-,N/A,,Clear,220,2012-10-11 14:35:00
9:55 AM,53.6,33.8,47,30.11,10.0,SSW,15.0,20.7,N/A,,Clear,210,2012-10-11 14:55:00
10:15 AM,55.4,33.8,44,30.11,10.0,SW,13.8,20.7,N/A,,Clear,220,2012-10-11 15:15:00
10:35 AM,57.2,32.0,38,30.11,10.0,SSW,13.8,19.6,N/A,,Clear,210,2012-10-11 15:35:00
10:55 AM,60.8,32.0,34,30.10,10.0,SW,16.1,20.7,N/A,,Clear,220,2012-10-11 15:55:00
11:15 AM,62.6,33.8,34,30.10,10.0,SW,13.8,19.6,N/A,,Clear,230,2012-10-11 16:15:00
11:35 AM,62.6,33.8,34,30.10,10.0,SW,12.7,-,N/A,,Clear,220,2012-10-11 16:35:00
11:55 AM,64.4,33.8,32,30.10,10.0,SW,15.0,21.9,N/A,,Clear,230,2012-10-11 16:55:00
12:15 PM,66.2,33.8,30,30.09,10.0,SW,15.0,-,N/A,,Clear,220,2012-10-11 17:15:00
12:55 PM,68.0,33.8,28,30.09,10.0,WSW,10.4,20.7,N/A,,Clear,240,2012-10-11 17:55:00
1:15 PM,69.8,35.6,28,30.07,10.0,WSW,9.2,-,N/A,,Clear,240,2012-10-11 18:15:00
1:35 PM,69.8,35.6,28,30.07,10.0,WSW,12.7,21.9,N/A,,Clear,250,2012-10-11 18:35:00
1:55 PM,69.8,35.6,28,30.06,10.0,WSW,11.5,-,N/A,,Clear,240,2012-10-11 18:55:00
2:15 PM,71.6,35.6,27,30.05,10.0,WSW,13.8,-,N/A,,Clear,240,2012-10-11 19:15:00
2:35 PM,71.6,35.6,27,30.05,10.0,WSW,8.1,16.1,N/A,,Clear,250,2012-10-11 19:35:00
2:55 PM,71.6,35.6,27,30.05,10.0,West,11.5,-,N/A,,Clear,260,2012-10-11 19:55:00
3:15 PM,71.6,37.4,29,30.05,10.0,West,16.1,19.6,N/A,,Clear,280,2012-10-11 20:15:00
3:55 PM,71.6,37.4,29,30.05,10.0,WNW,8.1,-,N/A,,Scattered Clouds,290,2012-10-11 20:55:00
4:15 PM,69.8,39.2,33,30.06,10.0,WNW,10.4,-,N/A,,Scattered Clouds,300,2012-10-11 21:15:00
4:35 PM,68.0,37.4,33,30.06,10.0,North,19.6,24.2,N/A,,Scattered Clouds,350,2012-10-11 21:35:00
4:55 PM,64.4,35.6,34,30.07,10.0,North,19.6,-,N/A,,Clear,350,2012-10-11 21:55:00
5:15 PM,62.6,35.6,37,30.08,10.0,North,16.1,19.6,N/A,,Clear,360,2012-10-11 22:15:00
5:35 PM,62.6,33.8,34,30.09,10.0,North,10.4,19.6,N/A,,Clear,360,2012-10-11 22:35:00
5:55 PM,60.8,33.8,36,30.10,10.0,North,12.7,-,N/A,,Clear,350,2012-10-11 22:55:00
6:35 PM,57.2,33.8,41,30.12,10.0,North,18.4,24.2,N/A,,Clear,360,2012-10-11 23:35:00
6:55 PM,55.4,33.8,44,30.15,10.0,North,19.6,-,N/A,,Clear,360,2012-10-11 23:55:00
7:15 PM,55.4,33.8,44,30.15,10.0,North,16.1,19.6,N/A,,Clear,360,2012-10-12 00:15:00
7:35 PM,53.6,33.8,47,30.16,10.0,North,15.0,23.0,N/A,,Clear,360,2012-10-12 00:35:00
8:15 PM,51.8,32.0,47,30.20,10.0,North,12.7,-,N/A,,Scattered Clouds,360,2012-10-12 01:15:00
8:35 PM,50.0,30.2,47,30.21,10.0,North,12.7,-,N/A,,Clear,360,2012-10-12 01:35:00
8:55 PM,51.8,30.2,44,30.22,10.0,North,12.7,17.3,N/A,,Scattered Clouds,10,2012-10-12 01:55:00
9:15 PM,50.0,30.2,47,30.23,10.0,North,12.7,17.3,N/A,,Overcast,10,2012-10-12 02:15:00
9:55 PM,50.0,32.0,50,30.25,10.0,North,11.5,-,N/A,,Overcast,10,2012-10-12 02:55:00
10:15 PM,48.2,33.8,58,30.27,10.0,North,10.4,-,N/A,,Overcast,10,2012-10-12 03:15:00
10:55 PM,48.2,33.8,58,30.29,10.0,North,12.7,18.4,N/A,,Overcast,360,2012-10-12 03:55:00
11:15 PM,48.2,30.2,50,30.29,10.0,North,11.5,-,N/A,,Overcast,10,2012-10-12 04:15:00
11:35 PM,48.2,28.4,46,30.30,10.0,NNE,12.7,18.4,N/A,,Overcast,20,2012-10-12 04:35:00
11:55 PM,48.2,26.6,43,30.31,10.0,NNE,11.5,-,N/A,,Overcast,20,2012-10-12 04:55:00